createdAt,value
2022-12-23T00:01:53.622Z,3.00
2022-12-23T00:04:23.875Z,2.97
2022-12-23T00:06:54.221Z,3.55
2022-12-23T00:09:24.406Z,4.97
2022-12-23T00:12:09.348Z,3.80
2022-12-23T00:14:54.465Z,5.55
2022-12-23T00:17:24.598Z,6.13
2022-12-23T00:19:54.735Z,6.30
2022-12-23T00:22:44.910Z,3.72
2022-12-23T00:25:16.670Z,3.38
2022-12-23T00:28:01.594Z,3.65
2022-12-23T00:30:34.348Z,2.55
2022-12-23T00:33:04.503Z,2.47
2022-12-23T00:35:34.772Z,2.47
2022-12-23T00:38:04.876Z,2.78
2022-12-23T00:40:48.735Z,3.03
2022-12-23T00:43:18.917Z,2.35
2022-12-23T00:45:51.696Z,2.38
2022-12-23T00:48:36.002Z,2.42
2022-12-23T00:51:06.361Z,2.17
2022-12-23T00:53:36.594Z,2.22
2022-12-23T00:56:06.919Z,2.42
2022-12-23T00:58:37.079Z,2.63
2022-12-23T01:01:22.231Z,2.55
2022-12-23T01:04:10.393Z,2.40
2022-12-23T01:06:43.075Z,2.30
2022-12-23T01:09:13.465Z,2.20
2022-12-23T01:11:43.993Z,2.03
2022-12-23T01:14:14.227Z,2.00
2022-12-23T01:16:47.654Z,2.17
2022-12-23T01:19:18.419Z,2.15
2022-12-23T01:21:48.546Z,1.80
2022-12-23T01:24:18.825Z,2.10
2022-12-23T01:26:48.942Z,1.73
2022-12-23T01:29:19.019Z,1.33
2022-12-23T01:31:51.935Z,0.68
2022-12-23T01:34:22.551Z,0.90
2022-12-23T01:36:52.796Z,0.60
2022-12-23T01:39:22.875Z,0.60
2022-12-23T01:42:08.470Z,0.63
2022-12-23T01:45:09.108Z,0.50
2022-12-23T01:47:48.957Z,0.55
2022-12-23T01:50:25.442Z,0.82
2022-12-23T01:53:07.650Z,0.55
2022-12-23T01:55:46.818Z,0.50
2022-12-23T01:58:24.165Z,0.40
2022-12-23T02:01:17.923Z,0.55
2022-12-23T02:03:56.012Z,0.60
2022-12-23T02:06:42.814Z,0.50
2022-12-23T02:09:20.794Z,0.30
2022-12-23T02:12:32.000Z,0.40
2022-12-23T02:15:49.477Z,0.47
2022-12-23T02:18:45.431Z,0.40
2022-12-23T02:22:03.887Z,0.60
2022-12-23T02:25:20.634Z,0.60
2022-12-23T02:28:12.494Z,0.60
2022-12-23T02:30:54.872Z,0.85
2022-12-23T02:33:49.392Z,0.98
2022-12-23T02:36:37.623Z,0.80
2022-12-23T02:39:13.566Z,0.80
2022-12-23T02:41:56.890Z,0.70
2022-12-23T02:44:39.445Z,0.70
2022-12-23T02:47:21.080Z,1.13
2022-12-23T02:49:57.166Z,0.80
2022-12-23T02:52:34.202Z,0.90
2022-12-23T02:55:12.848Z,1.00
2022-12-23T02:57:49.746Z,0.80
2022-12-23T03:00:22.129Z,0.95
2022-12-23T03:02:57.112Z,0.90
2022-12-23T03:05:40.626Z,1.45
2022-12-23T03:08:19.461Z,1.95
2022-12-23T03:11:07.365Z,1.63
2022-12-23T03:13:57.472Z,1.77
2022-12-23T03:16:37.869Z,2.20
2022-12-23T03:19:28.713Z,2.00
2022-12-23T03:22:11.744Z,2.30
2022-12-23T03:24:54.319Z,2.00
2022-12-23T03:27:30.824Z,1.80
2022-12-23T03:30:08.573Z,1.83
2022-12-23T03:32:48.856Z,2.35
2022-12-23T03:35:28.804Z,2.28
2022-12-23T03:38:03.604Z,2.28
2022-12-23T03:40:40.777Z,2.22
2022-12-23T03:43:18.574Z,2.67
2022-12-23T03:45:57.251Z,2.30
2022-12-23T03:48:34.783Z,2.60
2022-12-23T03:51:17.785Z,2.13
2022-12-23T03:53:54.865Z,2.78
2022-12-23T03:56:37.503Z,2.45
2022-12-23T03:59:16.899Z,2.70
2022-12-23T04:02:03.885Z,2.35
2022-12-23T04:04:48.437Z,2.53
2022-12-23T04:07:28.567Z,2.50
2022-12-23T04:10:00.296Z,2.25
2022-12-23T04:12:32.538Z,2.78
2022-12-23T04:15:06.165Z,2.75
2022-12-23T04:17:39.662Z,2.35
2022-12-23T04:20:13.489Z,1.90
2022-12-23T04:22:46.472Z,1.83
2022-12-23T04:25:19.312Z,1.90
2022-12-23T04:27:52.042Z,1.80
2022-12-23T04:30:23.208Z,2.20
2022-12-23T04:32:56.042Z,1.90
2022-12-23T04:35:26.264Z,2.00
2022-12-23T04:37:59.023Z,2.00
2022-12-23T04:40:29.098Z,2.00
2022-12-23T04:43:01.473Z,2.03
2022-12-23T04:45:31.594Z,1.60
2022-12-23T04:48:01.650Z,1.50
2022-12-23T04:50:31.752Z,1.58
2022-12-23T04:53:04.475Z,1.50
2022-12-23T04:55:34.546Z,1.45
2022-12-23T04:58:04.663Z,1.27
2022-12-23T05:00:39.394Z,1.60
2022-12-23T05:03:10.161Z,1.60
2022-12-23T05:05:46.071Z,1.80
2022-12-23T05:08:18.745Z,1.52
2022-12-23T05:10:48.993Z,1.38
2022-12-23T05:13:19.303Z,1.60
2022-12-23T05:15:52.768Z,1.70
2022-12-23T05:18:24.057Z,1.92
2022-12-23T05:20:54.375Z,1.70
2022-12-23T05:23:27.144Z,1.80
2022-12-23T05:25:57.987Z,1.63
2022-12-23T05:28:28.195Z,1.42
2022-12-23T05:31:02.527Z,1.40
2022-12-23T05:33:33.227Z,1.50
2022-12-23T05:36:03.804Z,1.08
2022-12-23T05:38:36.670Z,1.13
2022-12-23T05:41:07.747Z,1.27
2022-12-23T05:43:37.853Z,1.20
2022-12-23T05:46:08.413Z,0.90
2022-12-23T05:48:38.524Z,0.90
2022-12-23T05:51:10.101Z,1.10
2022-12-23T05:53:42.746Z,1.52
2022-12-23T05:56:12.893Z,1.25
2022-12-23T05:58:43.427Z,1.05
2022-12-23T06:01:13.629Z,1.02
2022-12-23T06:03:43.928Z,1.20
2022-12-23T06:06:14.159Z,1.10
2022-12-23T06:08:47.848Z,1.08
2022-12-23T06:11:17.940Z,1.40
2022-12-23T06:13:48.008Z,1.50
2022-12-23T06:16:18.126Z,1.90
2022-12-23T06:18:48.297Z,1.88
2022-12-23T06:21:18.337Z,1.75
2022-12-23T06:23:51.033Z,1.88
2022-12-23T06:26:21.117Z,1.58
2022-12-23T06:28:53.728Z,2.08
2022-12-23T06:31:23.818Z,2.05
2022-12-23T06:33:53.917Z,1.95
2022-12-23T06:36:24.013Z,2.00
2022-12-23T06:38:56.673Z,1.80
2022-12-23T06:41:26.776Z,1.73
2022-12-23T06:43:56.886Z,2.22
2022-12-23T06:46:26.956Z,2.13
2022-12-23T06:48:57.434Z,2.25
2022-12-23T06:51:27.555Z,2.38
2022-12-23T06:54:02.813Z,2.28
2022-12-23T06:56:35.222Z,2.28
2022-12-23T06:59:05.396Z,2.70
2022-12-23T07:01:36.325Z,4.18
2022-12-23T07:04:07.322Z,3.10
2022-12-23T07:06:37.754Z,2.80
2022-12-23T07:09:11.457Z,2.78
2022-12-23T07:11:41.534Z,2.60
2022-12-23T07:14:12.029Z,2.95
2022-12-23T07:16:42.157Z,2.70
2022-12-23T07:19:12.248Z,2.65
2022-12-23T07:21:42.390Z,3.28
2022-12-23T07:24:15.344Z,3.03
2022-12-23T07:26:45.450Z,3.03
2022-12-23T07:29:15.547Z,3.13
2022-12-23T07:31:45.809Z,3.60
2022-12-23T07:34:15.956Z,4.22
2022-12-23T07:36:46.083Z,4.53
2022-12-23T07:39:18.733Z,5.90
2022-12-23T07:41:48.918Z,6.85
2022-12-23T07:44:19.030Z,6.93
2022-12-23T07:46:49.186Z,12.77
2022-12-23T07:49:19.290Z,11.88
2022-12-23T07:51:49.828Z,11.88
2022-12-23T07:54:22.945Z,7.90
2022-12-23T07:56:53.036Z,8.68
2022-12-23T07:59:23.105Z,7.30
2022-12-23T08:01:53.339Z,6.03
2022-12-23T08:04:23.586Z,6.47
2022-12-23T08:06:53.814Z,5.63
2022-12-23T08:09:29.820Z,5.15
2022-12-23T08:11:59.940Z,6.22
2022-12-23T08:14:30.034Z,5.68
2022-12-23T08:17:00.152Z,6.68
2022-12-23T08:19:30.356Z,5.57
2022-12-23T08:22:00.446Z,6.72
2022-12-23T08:24:33.135Z,6.95
2022-12-23T08:27:04.474Z,4.65
2022-12-23T08:29:36.584Z,4.15
2022-12-23T08:32:07.242Z,3.95
2022-12-23T08:34:39.496Z,3.88
2022-12-23T08:37:10.211Z,4.93
2022-12-23T08:39:43.830Z,4.45
2022-12-23T08:42:14.056Z,4.05
2022-12-23T08:44:44.128Z,4.65
2022-12-23T08:47:14.197Z,4.05
2022-12-23T08:49:44.549Z,5.25
2022-12-23T08:52:14.719Z,7.80
2022-12-23T08:54:47.451Z,5.43
2022-12-23T08:57:17.542Z,3.15
2022-12-23T08:59:47.851Z,3.13
2022-12-23T09:02:18.063Z,3.00
2022-12-23T09:04:48.240Z,2.45
2022-12-23T09:07:18.287Z,2.67
2022-12-23T09:09:51.199Z,2.00
2022-12-23T09:12:21.310Z,2.28
2022-12-23T09:14:51.413Z,2.08
2022-12-23T09:17:21.562Z,1.80
2022-12-23T09:19:53.247Z,2.05
2022-12-23T09:22:24.587Z,2.15
2022-12-23T09:25:04.598Z,2.20
2022-12-23T09:27:35.305Z,2.85
2022-12-23T09:30:05.861Z,2.80
2022-12-23T09:32:35.996Z,3.00
2022-12-23T09:35:06.468Z,2.70
2022-12-23T09:37:36.727Z,2.15
2022-12-23T09:40:14.711Z,2.22
2022-12-23T09:43:00.458Z,2.05
2022-12-23T09:46:01.363Z,2.58
2022-12-23T09:48:39.119Z,3.50
2022-12-23T09:51:11.813Z,3.25
2022-12-23T09:53:59.411Z,2.33
2022-12-23T09:56:45.868Z,1.75
2022-12-23T09:59:48.174Z,1.60
2022-12-23T10:02:32.128Z,2.05
2022-12-23T10:05:19.645Z,1.35
2022-12-23T10:07:56.491Z,1.90
2022-12-23T10:10:36.913Z,2.10
2022-12-23T10:13:19.266Z,2.15
2022-12-23T10:15:54.942Z,1.90
2022-12-23T10:18:30.845Z,2.40
2022-12-23T10:21:09.874Z,1.85
2022-12-23T10:23:44.825Z,1.77
2022-12-23T10:26:26.419Z,1.77
2022-12-23T10:29:18.487Z,1.20
2022-12-23T10:32:06.966Z,1.25
2022-12-23T10:34:55.432Z,1.17
2022-12-23T10:37:37.507Z,1.15
2022-12-23T10:40:25.415Z,1.63
2022-12-23T10:43:14.841Z,1.80
2022-12-23T10:45:58.819Z,1.75
2022-12-23T10:48:51.686Z,2.03
2022-12-23T10:51:31.801Z,1.80
2022-12-23T10:54:08.868Z,1.67
2022-12-23T10:56:39.185Z,1.80
2022-12-23T10:59:16.619Z,2.03
2022-12-23T11:02:01.499Z,1.98
2022-12-23T11:04:38.804Z,2.10
2022-12-23T11:07:43.412Z,2.00
2022-12-23T11:10:19.869Z,2.10
2022-12-23T11:12:53.940Z,1.60
2022-12-23T11:15:54.490Z,1.77
2022-12-23T11:18:30.049Z,2.42
2022-12-23T11:21:09.306Z,2.08
2022-12-23T11:23:39.637Z,1.67
2022-12-23T11:26:12.759Z,2.22
2022-12-23T11:28:53.352Z,1.50
2022-12-23T11:31:32.605Z,1.50
2022-12-23T11:34:10.987Z,1.60
2022-12-23T11:36:41.326Z,1.80
2022-12-23T11:39:26.876Z,1.70
2022-12-23T11:42:07.746Z,1.85
2022-12-23T11:44:43.532Z,1.80
2022-12-23T11:47:35.727Z,2.15
2022-12-23T11:50:41.859Z,1.70
2022-12-23T11:53:22.659Z,4.38
2022-12-23T11:56:07.389Z,2.13
2022-12-23T11:58:49.533Z,1.48
2022-12-23T12:01:23.285Z,1.52
2022-12-23T12:04:02.429Z,1.48
2022-12-23T12:06:36.871Z,1.20
2022-12-23T12:09:09.062Z,1.27
2022-12-23T12:11:49.158Z,1.57
2022-12-23T12:14:28.194Z,1.33
2022-12-23T12:17:08.416Z,1.37
2022-12-23T12:19:49.625Z,1.13
2022-12-23T12:22:37.710Z,1.23
2022-12-23T12:25:22.618Z,1.50
2022-12-23T12:28:02.808Z,1.30
2022-12-23T12:30:40.167Z,1.23
2022-12-23T12:33:22.445Z,1.17
2022-12-23T12:36:05.267Z,1.30
2022-12-23T12:38:42.765Z,1.20
2022-12-23T12:41:22.233Z,1.87
2022-12-23T12:44:03.303Z,1.80
2022-12-23T12:46:43.814Z,1.47
2022-12-23T12:49:28.138Z,1.90
2022-12-23T12:52:08.997Z,1.80
2022-12-23T12:54:50.998Z,1.50
2022-12-23T12:57:24.582Z,1.35
2022-12-23T13:00:06.215Z,1.73
2022-12-23T13:03:17.357Z,2.07
2022-12-23T13:06:08.635Z,2.10
2022-12-23T13:09:00.692Z,1.93
2022-12-23T13:11:46.859Z,2.33
2022-12-23T13:14:34.751Z,1.70
2022-12-23T13:17:15.996Z,2.13
2022-12-23T13:19:58.737Z,2.33
2022-12-23T13:22:35.032Z,2.20
2022-12-23T13:25:16.772Z,2.47
2022-12-23T13:27:59.335Z,2.10
2022-12-23T13:30:41.694Z,2.90
2022-12-23T13:33:28.195Z,3.00
2022-12-23T13:36:19.265Z,3.27
2022-12-23T13:39:15.950Z,3.10
2022-12-23T13:41:51.762Z,2.63
2022-12-23T13:44:26.101Z,4.00
2022-12-23T13:47:08.484Z,3.07
2022-12-23T13:49:58.800Z,3.40
2022-12-23T13:52:53.226Z,4.00
2022-12-23T13:56:03.849Z,3.57
2022-12-23T13:58:36.041Z,4.00
2022-12-23T14:01:46.777Z,3.70
2022-12-23T14:04:59.952Z,4.07
2022-12-23T14:07:34.680Z,4.40
2022-12-23T14:10:22.494Z,5.70
2022-12-23T14:12:55.917Z,4.15
2022-12-23T14:15:51.780Z,4.65
2022-12-23T14:18:50.892Z,4.57
2022-12-23T14:21:35.600Z,4.30
2022-12-23T14:24:49.006Z,4.00
2022-12-23T14:27:49.437Z,4.00
2022-12-23T14:30:26.330Z,3.70
2022-12-23T14:33:02.367Z,4.40
2022-12-23T14:36:00.129Z,4.30
2022-12-23T14:38:35.625Z,3.42
2022-12-23T14:41:39.711Z,4.15
2022-12-23T14:44:23.768Z,2.80
2022-12-23T14:46:59.496Z,2.20
2022-12-23T14:49:46.486Z,1.85
2022-12-23T14:53:04.588Z,1.85
2022-12-23T14:55:54.003Z,1.75
2022-12-23T14:58:56.470Z,1.80
2022-12-23T15:01:35.858Z,1.75
2022-12-23T15:04:19.296Z,1.90
2022-12-23T15:06:55.130Z,2.20
2022-12-23T15:09:33.248Z,2.30
2022-12-23T15:12:09.256Z,2.00
2022-12-23T15:14:46.934Z,2.15
2022-12-23T15:17:28.517Z,1.33
2022-12-23T15:20:15.641Z,1.20
2022-12-23T15:22:49.275Z,1.23
2022-12-23T15:25:29.093Z,1.00
2022-12-23T15:28:02.555Z,1.33
2022-12-23T15:30:39.118Z,0.98
2022-12-23T15:33:43.256Z,1.30
2022-12-23T15:36:05.173Z,1.08
2022-12-23T15:38:40.141Z,1.00
2022-12-23T15:41:19.744Z,0.88
2022-12-23T15:43:49.862Z,0.73
2022-12-23T15:46:29.850Z,0.85
2022-12-23T15:49:01.054Z,1.02
2022-12-23T15:52:05.933Z,1.60
2022-12-23T15:54:33.029Z,2.25
2022-12-23T15:57:07.513Z,1.70
2022-12-23T15:59:41.637Z,1.20
2022-12-23T16:05:30.778Z,0.88
2022-12-23T16:08:28.960Z,1.17
2022-12-23T16:11:14.467Z,0.80
2022-12-23T16:14:01.467Z,0.80
2022-12-23T16:16:41.513Z,0.88
2022-12-23T16:19:44.601Z,0.85
2022-12-23T16:22:33.618Z,0.90
2022-12-23T16:25:20.475Z,0.90
2022-12-23T16:27:57.256Z,0.65
2022-12-23T16:30:36.071Z,0.55
2022-12-23T16:33:09.816Z,0.80
2022-12-23T16:35:43.547Z,0.65
2022-12-23T16:38:19.095Z,0.63
2022-12-23T16:40:53.366Z,0.75
2022-12-23T16:43:26.255Z,0.80
2022-12-23T16:46:00.352Z,0.80
2022-12-23T16:48:35.279Z,1.02
2022-12-23T16:51:10.986Z,1.83
2022-12-23T16:53:41.478Z,1.65
2022-12-23T16:56:15.476Z,1.75
2022-12-23T16:58:46.568Z,1.48
2022-12-23T17:01:25.325Z,2.17
2022-12-23T17:03:55.973Z,2.17
2022-12-23T17:06:27.301Z,1.80
2022-12-23T17:08:57.415Z,2.20
2022-12-23T17:11:37.224Z,1.95
2022-12-23T17:14:15.407Z,2.30
2022-12-23T17:16:48.948Z,2.30
2022-12-23T17:19:27.869Z,2.10
2022-12-23T17:22:05.748Z,2.30
2022-12-23T17:24:35.860Z,3.58
2022-12-23T17:27:15.462Z,2.58
2022-12-23T17:29:46.003Z,2.50
2022-12-23T17:32:21.602Z,2.83
2022-12-23T17:34:51.862Z,3.28
2022-12-23T17:37:24.683Z,2.75
2022-12-23T17:39:54.833Z,3.65
2022-12-23T17:42:26.346Z,2.50
2022-12-23T17:44:56.536Z,3.15
2022-12-23T17:47:30.139Z,3.35
2022-12-23T17:50:00.350Z,3.17
2022-12-23T17:52:30.568Z,2.90
2022-12-23T17:55:00.850Z,3.40
2022-12-23T17:57:31.025Z,3.42
2022-12-23T18:00:01.123Z,2.95
2022-12-23T18:02:35.951Z,3.08
2022-12-23T18:05:24.771Z,3.20
2022-12-23T18:07:58.154Z,3.22
2022-12-23T18:10:37.354Z,3.42
2022-12-23T18:13:12.530Z,3.00
2022-12-23T18:15:45.183Z,3.00
2022-12-23T18:18:31.327Z,3.15
2022-12-23T18:21:05.943Z,2.90
2022-12-23T18:23:37.440Z,3.20
2022-12-23T18:26:07.611Z,2.83
2022-12-23T18:28:37.761Z,2.70
2022-12-23T18:31:08.008Z,2.97
2022-12-23T18:33:40.747Z,2.72
2022-12-23T18:36:23.940Z,2.47
2022-12-23T18:38:55.026Z,3.45
2022-12-23T18:41:27.202Z,2.80
2022-12-23T18:43:57.883Z,2.95
2022-12-23T18:46:28.033Z,3.05
2022-12-23T18:49:00.775Z,3.47
2022-12-23T18:51:35.297Z,3.00
2022-12-23T18:54:05.440Z,2.85
2022-12-23T18:56:35.651Z,3.10
2022-12-23T18:59:05.826Z,2.75
2022-12-23T19:01:38.764Z,3.03
2022-12-23T19:04:11.865Z,2.55
2022-12-23T19:06:43.482Z,3.25
2022-12-23T19:09:19.852Z,3.88
2022-12-23T19:11:52.237Z,3.70
2022-12-23T19:14:22.363Z,3.00
2022-12-23T19:16:52.975Z,3.22
2022-12-23T19:19:25.904Z,3.60
2022-12-23T19:21:56.013Z,3.38
2022-12-23T19:24:26.278Z,3.42
2022-12-23T19:26:56.504Z,3.70
2022-12-23T19:29:26.598Z,4.05
2022-12-23T19:31:56.752Z,4.13
2022-12-23T19:34:29.512Z,3.35
2022-12-23T19:36:59.660Z,3.00
2022-12-23T19:39:29.796Z,3.10
2022-12-23T19:41:59.915Z,3.67
2022-12-23T19:44:32.910Z,2.83
2022-12-23T19:47:03.915Z,2.90
2022-12-23T19:49:37.018Z,3.30
2022-12-23T19:52:07.956Z,2.63
2022-12-23T19:54:38.072Z,3.10
2022-12-23T19:57:10.474Z,2.97
2022-12-23T19:59:40.556Z,2.90
2022-12-23T20:02:15.581Z,3.08
2022-12-23T20:04:48.979Z,2.60
2022-12-23T20:07:19.924Z,3.00
2022-12-23T20:09:50.039Z,3.03
2022-12-23T20:12:20.183Z,2.88
2022-12-23T20:14:50.759Z,3.08
2022-12-23T20:17:21.988Z,2.67
2022-12-23T20:19:54.701Z,2.85
2022-12-23T20:22:27.148Z,2.40
2022-12-23T20:24:58.700Z,2.15
2022-12-23T20:27:28.891Z,2.53
2022-12-23T20:29:58.983Z,2.38
2022-12-23T20:32:29.193Z,2.47
2022-12-23T20:35:01.847Z,3.08
2022-12-23T20:37:31.988Z,2.63
2022-12-23T20:40:02.142Z,2.72
2022-12-23T20:42:32.224Z,2.78
2022-12-23T20:45:02.359Z,2.83
2022-12-23T20:47:34.718Z,3.00
2022-12-23T20:50:12.955Z,2.72
2022-12-23T20:52:43.043Z,3.22
2022-12-23T20:55:13.531Z,3.40
2022-12-23T20:57:46.924Z,3.42
2022-12-23T21:00:19.943Z,3.97
2022-12-23T21:02:50.060Z,2.55
2022-12-23T21:05:22.963Z,2.53
2022-12-23T21:07:55.410Z,3.50
2022-12-23T21:10:25.469Z,3.28
2022-12-23T21:12:55.517Z,3.28
2022-12-23T21:15:25.640Z,2.95
2022-12-23T21:17:55.961Z,3.25
2022-12-23T21:20:28.686Z,2.45
2022-12-23T21:22:58.777Z,3.03
2022-12-23T21:25:29.007Z,3.78
2022-12-23T21:27:59.144Z,2.80
2022-12-23T21:30:29.659Z,3.25
2022-12-23T21:33:04.698Z,2.58
2022-12-23T21:35:39.785Z,2.85
2022-12-23T21:38:09.851Z,2.40
2022-12-23T21:40:39.983Z,2.95
2022-12-23T21:43:12.508Z,2.28
2022-12-23T21:45:42.695Z,3.10
2022-12-23T21:48:12.795Z,2.80
2022-12-23T21:50:45.475Z,2.85
2022-12-23T21:53:15.615Z,2.65
2022-12-23T21:55:45.738Z,2.97
2022-12-23T21:58:15.855Z,2.40
2022-12-23T22:00:49.463Z,3.42
2022-12-23T22:03:22.321Z,2.80
2022-12-23T22:05:56.036Z,2.80
2022-12-23T22:08:30.686Z,3.10
2022-12-23T22:11:00.811Z,2.95
2022-12-23T22:13:33.730Z,2.20
2022-12-23T22:16:03.938Z,1.90
2022-12-23T22:18:34.774Z,2.58
2022-12-23T22:21:12.834Z,2.42
2022-12-23T22:23:43.417Z,2.80
2022-12-23T22:26:20.249Z,2.88
2022-12-23T22:28:54.631Z,2.70
2022-12-23T22:31:34.379Z,3.00
2022-12-23T22:34:07.547Z,2.90
2022-12-23T22:36:40.244Z,3.05
2022-12-23T22:39:12.987Z,2.80
2022-12-23T22:41:47.814Z,3.13
2022-12-23T22:44:20.356Z,3.00
2022-12-23T22:46:50.911Z,2.58
2022-12-23T22:49:23.837Z,2.53
2022-12-23T22:51:56.493Z,2.80
2022-12-23T22:54:26.605Z,1.92
2022-12-23T22:56:56.647Z,2.30
2022-12-23T22:59:30.512Z,2.50
2022-12-23T23:02:03.784Z,2.70
2022-12-23T23:04:34.003Z,2.65
2022-12-23T23:07:08.773Z,2.60
2022-12-23T23:09:39.029Z,3.28
2022-12-23T23:12:09.390Z,3.40
2022-12-23T23:14:51.775Z,3.30
2022-12-23T23:17:22.143Z,3.15
2022-12-23T23:19:53.829Z,3.15
2022-12-23T23:22:27.609Z,3.00
2022-12-23T23:24:57.789Z,3.35
2022-12-23T23:27:27.862Z,3.10
2022-12-23T23:29:58.022Z,2.78
2022-12-23T23:32:28.146Z,3.10
2022-12-23T23:34:58.330Z,3.08
2022-12-23T23:37:30.965Z,2.58
2022-12-23T23:40:01.093Z,3.28
2022-12-23T23:42:31.172Z,3.78
2022-12-23T23:45:01.315Z,3.83
2022-12-23T23:47:34.541Z,3.35
2022-12-23T23:50:04.906Z,4.00
2022-12-23T23:52:37.664Z,3.95
2022-12-23T23:55:13.989Z,3.17
2022-12-23T23:57:44.075Z,2.80
